sensor_id;sensor_type;location;lat;lon;timestamp;pressure;altitude;pressure_sealevel;temperature;humidity
37972;BME280;23794;48.234;8.344;2023-08-06T00:00:32;93662.56;;;13.17;67.26
37972;BME280;23794;48.234;8.344;2023-08-06T00:02:58;93666.16;;;13.14;67.13
37972;BME280;23794;48.234;8.344;2023-08-06T00:05:25;93649.91;;;13.19;66.71
37972;BME280;23794;48.234;8.344;2023-08-06T00:07:52;93648.91;;;13.13;67.52
37972;BME280;23794;48.234;8.344;2023-08-06T00:10:18;93638.44;;;13.08;67.54
37972;BME280;23794;48.234;8.344;2023-08-06T00:12:45;93644.16;;;13.14;67.79
37972;BME280;23794;48.234;8.344;2023-08-06T00:15:12;93642.09;;;13.18;67.96
37972;BME280;23794;48.234;8.344;2023-08-06T00:17:38;93635.72;;;13.21;66.96
37972;BME280;23794;48.234;8.344;2023-08-06T00:20:05;93640.63;;;13.30;66.67
37972;BME280;23794;48.234;8.344;2023-08-06T00:22:33;93634.94;;;13.37;67.91
37972;BME280;23794;48.234;8.344;2023-08-06T00:25:00;93638.47;;;13.37;67.26
37972;BME280;23794;48.234;8.344;2023-08-06T00:27:26;93618.69;;;13.42;67.66
37972;BME280;23794;48.234;8.344;2023-08-06T00:29:53;93627.81;;;13.39;67.45
37972;BME280;23794;48.234;8.344;2023-08-06T00:32:21;93627.63;;;13.30;67.49
37972;BME280;23794;48.234;8.344;2023-08-06T00:34:48;93623.50;;;13.38;66.97
37972;BME280;23794;48.234;8.344;2023-08-06T00:37:16;93614.81;;;13.40;67.12
37972;BME280;23794;48.234;8.344;2023-08-06T00:39:44;93617.34;;;13.34;67.67
37972;BME280;23794;48.234;8.344;2023-08-06T00:42:11;93622.69;;;13.25;68.31
37972;BME280;23794;48.234;8.344;2023-08-06T00:44:38;93624.06;;;13.17;67.66
37972;BME280;23794;48.234;8.344;2023-08-06T00:47:07;93623.22;;;13.20;68.07
37972;BME280;23794;48.234;8.344;2023-08-06T00:49:35;93627.38;;;13.24;67.30
37972;BME280;23794;48.234;8.344;2023-08-06T00:52:04;93629.09;;;13.35;68.06
37972;BME280;23794;48.234;8.344;2023-08-06T00:54:32;93630.38;;;13.30;68.25
37972;BME280;23794;48.234;8.344;2023-08-06T00:57:01;93619.03;;;13.28;68.13
37972;BME280;23794;48.234;8.344;2023-08-06T00:59:29;93617.63;;;13.23;68.48
37972;BME280;23794;48.234;8.344;2023-08-06T01:01:56;93613.63;;;13.24;69.27
37972;BME280;23794;48.234;8.344;2023-08-06T01:04:23;93610.06;;;13.11;68.73
37972;BME280;23794;48.234;8.344;2023-08-06T01:17:36;93602.03;;;13.33;68.31
37972;BME280;23794;48.234;8.344;2023-08-06T01:20:03;93594.63;;;13.30;68.11
37972;BME280;23794;48.234;8.344;2023-08-06T01:22:30;93582.53;;;13.27;68.39
37972;BME280;23794;48.234;8.344;2023-08-06T01:24:56;93583.47;;;13.21;68.75
37972;BME280;23794;48.234;8.344;2023-08-06T01:27:28;93579.13;;;13.23;69.00
37972;BME280;23794;48.234;8.344;2023-08-06T01:30:15;93581.97;;;13.20;68.42
37972;BME280;23794;48.234;8.344;2023-08-06T01:32:46;93567.59;;;13.29;69.08
37972;BME280;23794;48.234;8.344;2023-08-06T01:35:16;93570.34;;;13.29;69.07
37972;BME280;23794;48.234;8.344;2023-08-06T01:37:44;93569.22;;;13.26;69.55
37972;BME280;23794;48.234;8.344;2023-08-06T01:40:12;93562.94;;;13.25;68.83
37972;BME280;23794;48.234;8.344;2023-08-06T01:42:39;93567.34;;;13.23;69.49
37972;BME280;23794;48.234;8.344;2023-08-06T01:45:08;93571.38;;;13.18;69.19
37972;BME280;23794;48.234;8.344;2023-08-06T01:47:35;93567.88;;;13.18;69.16
37972;BME280;23794;48.234;8.344;2023-08-06T01:50:02;93564.84;;;13.29;68.80
37972;BME280;23794;48.234;8.344;2023-08-06T01:52:29;93578.81;;;13.34;69.01
37972;BME280;23794;48.234;8.344;2023-08-06T01:54:56;93576.53;;;13.46;69.32
37972;BME280;23794;48.234;8.344;2023-08-06T01:57:22;93570.09;;;13.52;68.64
37972;BME280;23794;48.234;8.344;2023-08-06T01:59:51;93571.72;;;13.50;69.16
37972;BME280;23794;48.234;8.344;2023-08-06T02:02:18;93562.28;;;13.64;68.43
37972;BME280;23794;48.234;8.344;2023-08-06T02:04:46;93553.00;;;13.74;68.20
37972;BME280;23794;48.234;8.344;2023-08-06T02:07:12;93561.16;;;13.78;68.26
37972;BME280;23794;48.234;8.344;2023-08-06T02:09:39;93562.81;;;13.75;68.84
37972;BME280;23794;48.234;8.344;2023-08-06T02:12:06;93560.09;;;13.58;70.35
37972;BME280;23794;48.234;8.344;2023-08-06T02:14:33;93561.38;;;13.54;71.31
37972;BME280;23794;48.234;8.344;2023-08-06T02:17:00;93562.50;;;13.56;72.05
37972;BME280;23794;48.234;8.344;2023-08-06T02:19:27;93563.81;;;13.52;72.81
37972;BME280;23794;48.234;8.344;2023-08-06T02:21:53;93555.75;;;13.45;73.29
37972;BME280;23794;48.234;8.344;2023-08-06T02:24:21;93563.25;;;13.44;73.58
37972;BME280;23794;48.234;8.344;2023-08-06T02:26:47;93556.28;;;13.39;74.47
37972;BME280;23794;48.234;8.344;2023-08-06T02:29:17;93550.53;;;13.34;74.50
37972;BME280;23794;48.234;8.344;2023-08-06T02:31:44;93556.38;;;13.36;74.75
37972;BME280;23794;48.234;8.344;2023-08-06T02:34:11;93557.69;;;13.31;75.75
37972;BME280;23794;48.234;8.344;2023-08-06T02:36:37;93555.47;;;13.26;75.85
37972;BME280;23794;48.234;8.344;2023-08-06T02:39:05;93549.63;;;13.24;76.51
37972;BME280;23794;48.234;8.344;2023-08-06T02:41:32;93534.44;;;13.19;76.15
37972;BME280;23794;48.234;8.344;2023-08-06T02:43:59;93530.22;;;13.15;76.26
37972;BME280;23794;48.234;8.344;2023-08-06T02:46:26;93537.75;;;12.98;78.37
37972;BME280;23794;48.234;8.344;2023-08-06T02:48:52;93528.41;;;12.95;77.44
37972;BME280;23794;48.234;8.344;2023-08-06T02:51:19;93532.97;;;12.85;78.41
37972;BME280;23794;48.234;8.344;2023-08-06T02:53:48;93534.25;;;12.81;78.72
37972;BME280;23794;48.234;8.344;2023-08-06T02:56:17;93536.91;;;12.84;79.38
37972;BME280;23794;48.234;8.344;2023-08-06T02:59:19;93534.25;;;12.81;79.17
37972;BME280;23794;48.234;8.344;2023-08-06T03:01:54;93535.38;;;12.83;79.13
37972;BME280;23794;48.234;8.344;2023-08-06T03:04:28;93547.66;;;12.78;78.93
37972;BME280;23794;48.234;8.344;2023-08-06T03:06:55;93548.09;;;12.60;79.33
37972;BME280;23794;48.234;8.344;2023-08-06T03:09:25;93551.38;;;12.39;79.35
37972;BME280;23794;48.234;8.344;2023-08-06T03:11:52;93547.38;;;12.23;78.47
37972;BME280;23794;48.234;8.344;2023-08-06T03:14:19;93552.50;;;12.21;78.80
37972;BME280;23794;48.234;8.344;2023-08-06T03:16:46;93558.94;;;11.98;77.90
37972;BME280;23794;48.234;8.344;2023-08-06T03:19:15;93560.41;;;12.03;77.62
37972;BME280;23794;48.234;8.344;2023-08-06T03:21:43;93564.34;;;12.02;78.83
37972;BME280;23794;48.234;8.344;2023-08-06T03:24:10;93561.66;;;11.98;79.59
37972;BME280;23794;48.234;8.344;2023-08-06T03:26:38;93560.47;;;11.99;78.35
37972;BME280;23794;48.234;8.344;2023-08-06T03:29:05;93546.47;;;11.93;81.05
37972;BME280;23794;48.234;8.344;2023-08-06T03:31:34;93548.78;;;11.95;80.08
37972;BME280;23794;48.234;8.344;2023-08-06T03:34:01;93552.28;;;11.95;81.24
37972;BME280;23794;48.234;8.344;2023-08-06T03:36:30;93553.75;;;12.00;78.87
37972;BME280;23794;48.234;8.344;2023-08-06T03:38:56;93550.94;;;12.04;80.31
37972;BME280;23794;48.234;8.344;2023-08-06T03:41:24;93556.75;;;11.89;78.89
37972;BME280;23794;48.234;8.344;2023-08-06T03:43:50;93551.09;;;11.96;79.50
37972;BME280;23794;48.234;8.344;2023-08-06T03:46:23;93554.34;;;11.91;79.36
37972;BME280;23794;48.234;8.344;2023-08-06T03:48:49;93541.75;;;11.94;80.86
37972;BME280;23794;48.234;8.344;2023-08-06T03:51:16;93537.81;;;11.95;79.97
37972;BME280;23794;48.234;8.344;2023-08-06T03:53:45;93534.88;;;11.86;78.58
37972;BME280;23794;48.234;8.344;2023-08-06T03:56:11;93533.22;;;11.72;79.63
37972;BME280;23794;48.234;8.344;2023-08-06T03:58:39;93543.91;;;11.66;80.90
37972;BME280;23794;48.234;8.344;2023-08-06T04:01:07;93540.81;;;11.64;81.27
37972;BME280;23794;48.234;8.344;2023-08-06T04:03:39;93537.22;;;11.67;79.90
37972;BME280;23794;48.234;8.344;2023-08-06T04:06:07;93531.69;;;11.71;80.32
37972;BME280;23794;48.234;8.344;2023-08-06T04:08:33;93545.88;;;11.65;80.04
37972;BME280;23794;48.234;8.344;2023-08-06T04:11:01;93534.56;;;11.63;79.87
37972;BME280;23794;48.234;8.344;2023-08-06T04:13:28;93529.84;;;11.64;79.81
37972;BME280;23794;48.234;8.344;2023-08-06T04:16:03;93534.78;;;11.52;80.72
37972;BME280;23794;48.234;8.344;2023-08-06T04:18:31;93528.53;;;11.52;80.67
37972;BME280;23794;48.234;8.344;2023-08-06T04:20:57;93534.28;;;11.58;80.89
37972;BME280;23794;48.234;8.344;2023-08-06T04:23:24;93529.47;;;11.62;79.49
37972;BME280;23794;48.234;8.344;2023-08-06T04:25:58;93538.78;;;11.68;78.51
37972;BME280;23794;48.234;8.344;2023-08-06T04:28:29;93533.97;;;11.72;79.44
37972;BME280;23794;48.234;8.344;2023-08-06T04:30:56;93531.16;;;11.76;79.19
37972;BME280;23794;48.234;8.344;2023-08-06T04:33:23;93526.59;;;11.69;80.08
37972;BME280;23794;48.234;8.344;2023-08-06T04:35:56;93529.25;;;11.73;79.27
37972;BME280;23794;48.234;8.344;2023-08-06T04:38:24;93537.91;;;11.71;80.01
37972;BME280;23794;48.234;8.344;2023-08-06T04:40:54;93540.22;;;11.73;80.15
37972;BME280;23794;48.234;8.344;2023-08-06T04:43:22;93532.06;;;11.69;79.73
37972;BME280;23794;48.234;8.344;2023-08-06T04:45:53;93536.44;;;11.66;79.65
37972;BME280;23794;48.234;8.344;2023-08-06T04:48:20;93535.09;;;11.75;79.87
37972;BME280;23794;48.234;8.344;2023-08-06T04:50:48;93535.72;;;11.82;80.57
37972;BME280;23794;48.234;8.344;2023-08-06T04:53:16;93540.94;;;11.77;79.40
37972;BME280;23794;48.234;8.344;2023-08-06T04:55:42;93539.41;;;11.76;79.69
37972;BME280;23794;48.234;8.344;2023-08-06T04:58:10;93549.84;;;11.81;79.17
37972;BME280;23794;48.234;8.344;2023-08-06T05:00:36;93539.66;;;11.81;78.97
37972;BME280;23794;48.234;8.344;2023-08-06T05:03:03;93531.00;;;11.83;78.82
37972;BME280;23794;48.234;8.344;2023-08-06T05:05:30;93539.16;;;11.87;78.98
37972;BME280;23794;48.234;8.344;2023-08-06T05:07:57;93538.41;;;11.86;77.55
37972;BME280;23794;48.234;8.344;2023-08-06T05:10:27;93544.03;;;11.79;79.55
37972;BME280;23794;48.234;8.344;2023-08-06T05:12:54;93540.28;;;11.89;79.34
37972;BME280;23794;48.234;8.344;2023-08-06T05:15:20;93544.50;;;11.94;78.75
37972;BME280;23794;48.234;8.344;2023-08-06T05:17:47;93545.81;;;12.06;79.27
37972;BME280;23794;48.234;8.344;2023-08-06T05:20:14;93542.13;;;12.12;77.54
37972;BME280;23794;48.234;8.344;2023-08-06T05:22:41;93536.38;;;12.07;77.60
37972;BME280;23794;48.234;8.344;2023-08-06T05:25:07;93534.47;;;12.04;77.62
37972;BME280;23794;48.234;8.344;2023-08-06T05:27:34;93540.75;;;12.04;77.85
37972;BME280;23794;48.234;8.344;2023-08-06T05:30:01;93554.19;;;11.98;78.03
37972;BME280;23794;48.234;8.344;2023-08-06T05:32:27;93549.38;;;11.86;79.00
37972;BME280;23794;48.234;8.344;2023-08-06T05:34:54;93554.00;;;11.89;77.60
37972;BME280;23794;48.234;8.344;2023-08-06T05:37:22;93560.19;;;11.93;78.30
37972;BME280;23794;48.234;8.344;2023-08-06T05:39:49;93560.97;;;11.94;78.00
37972;BME280;23794;48.234;8.344;2023-08-06T05:42:17;93557.84;;;11.92;78.46
37972;BME280;23794;48.234;8.344;2023-08-06T05:44:43;93552.97;;;11.83;78.87
37972;BME280;23794;48.234;8.344;2023-08-06T05:47:12;93556.41;;;11.87;78.43
37972;BME280;23794;48.234;8.344;2023-08-06T05:49:41;93561.53;;;11.85;79.37
37972;BME280;23794;48.234;8.344;2023-08-06T05:52:07;93569.78;;;11.85;79.78
37972;BME280;23794;48.234;8.344;2023-08-06T05:54:34;93570.22;;;12.00;79.10
37972;BME280;23794;48.234;8.344;2023-08-06T05:57:01;93567.41;;;12.04;79.55
37972;BME280;23794;48.234;8.344;2023-08-06T05:59:28;93562.44;;;11.98;78.53
37972;BME280;23794;48.234;8.344;2023-08-06T06:01:54;93564.66;;;11.87;77.92
37972;BME280;23794;48.234;8.344;2023-08-06T06:04:21;93560.31;;;11.70;79.21
37972;BME280;23794;48.234;8.344;2023-08-06T06:06:48;93569.66;;;11.72;78.70
37972;BME280;23794;48.234;8.344;2023-08-06T06:09:15;93559.41;;;11.93;78.95
37972;BME280;23794;48.234;8.344;2023-08-06T06:11:41;93566.75;;;12.16;78.45
37972;BME280;23794;48.234;8.344;2023-08-06T06:14:08;93575.31;;;12.18;79.56
37972;BME280;23794;48.234;8.344;2023-08-06T06:16:35;93577.25;;;12.38;77.58
37972;BME280;23794;48.234;8.344;2023-08-06T06:19:01;93575.88;;;12.29;78.24
37972;BME280;23794;48.234;8.344;2023-08-06T06:21:28;93575.59;;;12.24;78.19
37972;BME280;23794;48.234;8.344;2023-08-06T06:23:55;93579.59;;;12.03;78.66
37972;BME280;23794;48.234;8.344;2023-08-06T06:26:23;93591.94;;;11.94;78.21
37972;BME280;23794;48.234;8.344;2023-08-06T06:28:49;93588.84;;;11.92;78.77
37972;BME280;23794;48.234;8.344;2023-08-06T06:31:16;93594.16;;;11.99;79.24
37972;BME280;23794;48.234;8.344;2023-08-06T06:33:42;93597.75;;;11.96;77.98
37972;BME280;23794;48.234;8.344;2023-08-06T06:36:09;93590.59;;;12.03;79.12
37972;BME280;23794;48.234;8.344;2023-08-06T06:38:36;93595.56;;;12.08;78.32
37972;BME280;23794;48.234;8.344;2023-08-06T06:41:02;93595.75;;;12.34;77.91
37972;BME280;23794;48.234;8.344;2023-08-06T06:43:30;93592.13;;;12.40;78.35
37972;BME280;23794;48.234;8.344;2023-08-06T06:45:57;93595.56;;;12.44;77.65
37972;BME280;23794;48.234;8.344;2023-08-06T06:48:33;93597.19;;;12.42;76.76
37972;BME280;23794;48.234;8.344;2023-08-06T06:51:00;93597.41;;;12.31;78.21
37972;BME280;23794;48.234;8.344;2023-08-06T06:53:27;93603.47;;;12.22;78.27
37972;BME280;23794;48.234;8.344;2023-08-06T06:56:02;93612.78;;;12.08;78.26
37972;BME280;23794;48.234;8.344;2023-08-06T06:58:29;93603.97;;;11.80;78.67
37972;BME280;23794;48.234;8.344;2023-08-06T07:00:56;93609.59;;;11.73;78.71
37972;BME280;23794;48.234;8.344;2023-08-06T07:03:22;93617.47;;;11.71;79.55
37972;BME280;23794;48.234;8.344;2023-08-06T07:05:49;93609.25;;;11.71;79.39
37972;BME280;23794;48.234;8.344;2023-08-06T07:08:16;93619.59;;;11.63;79.60
37972;BME280;23794;48.234;8.344;2023-08-06T07:10:43;93614.03;;;11.67;79.36
37972;BME280;23794;48.234;8.344;2023-08-06T07:13:10;93617.56;;;11.67;80.48
37972;BME280;23794;48.234;8.344;2023-08-06T07:15:36;93619.25;;;11.81;79.58
37972;BME280;23794;48.234;8.344;2023-08-06T07:18:03;93632.03;;;11.88;79.52
37972;BME280;23794;48.234;8.344;2023-08-06T07:20:30;93623.19;;;11.80;78.14
37972;BME280;23794;48.234;8.344;2023-08-06T07:22:58;93612.81;;;11.88;79.01
37972;BME280;23794;48.234;8.344;2023-08-06T07:25:25;93636.53;;;11.98;78.33
37972;BME280;23794;48.234;8.344;2023-08-06T07:27:52;93620.50;;;11.97;78.61
37972;BME280;23794;48.234;8.344;2023-08-06T07:30:18;93632.03;;;11.88;78.86
37972;BME280;23794;48.234;8.344;2023-08-06T07:32:45;93634.63;;;11.95;77.50
37972;BME280;23794;48.234;8.344;2023-08-06T07:35:12;93628.81;;;11.93;77.86
37972;BME280;23794;48.234;8.344;2023-08-06T07:37:41;93635.50;;;11.92;78.21
37972;BME280;23794;48.234;8.344;2023-08-06T07:40:08;93638.75;;;11.87;78.64
37972;BME280;23794;48.234;8.344;2023-08-06T07:42:35;93646.03;;;11.94;77.74
37972;BME280;23794;48.234;8.344;2023-08-06T07:45:02;93645.41;;;12.06;77.61
37972;BME280;23794;48.234;8.344;2023-08-06T07:47:28;93645.97;;;11.97;77.29
37972;BME280;23794;48.234;8.344;2023-08-06T07:49:55;93648.34;;;11.95;77.36
37972;BME280;23794;48.234;8.344;2023-08-06T07:52:22;93636.88;;;12.00;78.18
37972;BME280;23794;48.234;8.344;2023-08-06T07:54:48;93646.03;;;12.14;77.84
37972;BME280;23794;48.234;8.344;2023-08-06T07:57:15;93646.66;;;12.22;77.40
37972;BME280;23794;48.234;8.344;2023-08-06T07:59:42;93641.91;;;12.22;77.36
37972;BME280;23794;48.234;8.344;2023-08-06T08:02:08;93646.22;;;12.23;77.57
37972;BME280;23794;48.234;8.344;2023-08-06T08:04:37;93645.19;;;12.17;77.62
37972;BME280;23794;48.234;8.344;2023-08-06T08:07:04;93643.34;;;12.10;78.24
37972;BME280;23794;48.234;8.344;2023-08-06T08:09:31;93639.25;;;12.19;79.34
37972;BME280;23794;48.234;8.344;2023-08-06T08:11:58;93641.50;;;12.24;78.43
37972;BME280;23794;48.234;8.344;2023-08-06T08:14:27;93639.34;;;12.15;78.35
37972;BME280;23794;48.234;8.344;2023-08-06T08:16:55;93636.66;;;12.11;78.17
37972;BME280;23794;48.234;8.344;2023-08-06T08:19:22;93647.66;;;12.11;79.43
37972;BME280;23794;48.234;8.344;2023-08-06T08:21:51;93638.00;;;12.03;78.42
37972;BME280;23794;48.234;8.344;2023-08-06T08:24:18;93648.69;;;12.18;79.28
37972;BME280;23794;48.234;8.344;2023-08-06T08:26:46;93632.84;;;12.25;78.59
37972;BME280;23794;48.234;8.344;2023-08-06T08:29:12;93638.06;;;12.40;77.79
37972;BME280;23794;48.234;8.344;2023-08-06T08:31:39;93644.16;;;12.64;76.84
37972;BME280;23794;48.234;8.344;2023-08-06T08:34:06;93631.38;;;12.74;76.75
37972;BME280;23794;48.234;8.344;2023-08-06T08:36:32;93649.94;;;12.70;77.72
37972;BME280;23794;48.234;8.344;2023-08-06T08:38:59;93648.63;;;12.91;76.06
37972;BME280;23794;48.234;8.344;2023-08-06T08:41:29;93647.97;;;13.03;76.54
37972;BME280;23794;48.234;8.344;2023-08-06T08:43:58;93653.38;;;13.07;75.84
37972;BME280;23794;48.234;8.344;2023-08-06T08:46:27;93652.44;;;12.97;74.75
37972;BME280;23794;48.234;8.344;2023-08-06T08:48:59;93651.38;;;12.91;76.30
37972;BME280;23794;48.234;8.344;2023-08-06T08:51:27;93659.63;;;12.91;76.99
37972;BME280;23794;48.234;8.344;2023-08-06T08:53:55;93661.28;;;13.05;76.50
37972;BME280;23794;48.234;8.344;2023-08-06T08:56:24;93663.00;;;13.15;75.80
37972;BME280;23794;48.234;8.344;2023-08-06T08:58:51;93661.44;;;12.98;76.26
37972;BME280;23794;48.234;8.344;2023-08-06T09:01:21;93669.16;;;13.03;77.71
37972;BME280;23794;48.234;8.344;2023-08-06T09:03:48;93677.41;;;13.19;77.35
37972;BME280;23794;48.234;8.344;2023-08-06T09:06:17;93672.56;;;13.40;76.81
37972;BME280;23794;48.234;8.344;2023-08-06T09:09:12;93672.38;;;13.47;75.01
37972;BME280;23794;48.234;8.344;2023-08-06T09:11:45;93673.25;;;13.61;75.47
37972;BME280;23794;48.234;8.344;2023-08-06T09:14:11;93671.81;;;13.39;75.16
37972;BME280;23794;48.234;8.344;2023-08-06T09:16:38;93684.19;;;13.31;75.48
37972;BME280;23794;48.234;8.344;2023-08-06T09:19:12;93677.78;;;13.21;75.41
37972;BME280;23794;48.234;8.344;2023-08-06T09:21:40;93690.41;;;13.19;75.75
37972;BME280;23794;48.234;8.344;2023-08-06T09:24:12;93690.22;;;13.26;75.63
37972;BME280;23794;48.234;8.344;2023-08-06T09:26:40;93689.25;;;13.16;75.34
37972;BME280;23794;48.234;8.344;2023-08-06T09:29:08;93705.63;;;13.07;76.07
37972;BME280;23794;48.234;8.344;2023-08-06T09:31:46;93694.16;;;12.92;75.57
37972;BME280;23794;48.234;8.344;2023-08-06T09:34:23;93700.91;;;12.54;76.27
37972;BME280;23794;48.234;8.344;2023-08-06T09:36:51;93707.63;;;12.70;77.27
37972;BME280;23794;48.234;8.344;2023-08-06T09:39:30;93704.56;;;12.84;77.34
37972;BME280;23794;48.234;8.344;2023-08-06T09:41:58;93705.13;;;12.75;75.64
37972;BME280;23794;48.234;8.344;2023-08-06T09:44:27;93697.88;;;12.85;75.51
37972;BME280;23794;48.234;8.344;2023-08-06T09:46:59;93713.69;;;12.98;75.13
37972;BME280;23794;48.234;8.344;2023-08-06T09:49:27;93698.56;;;13.06;76.81
37972;BME280;23794;48.234;8.344;2023-08-06T09:51:54;93709.81;;;13.28;76.67
37972;BME280;23794;48.234;8.344;2023-08-06T09:54:27;93706.34;;;13.57;75.23
37972;BME280;23794;48.234;8.344;2023-08-06T09:56:56;93699.88;;;13.64;75.24
37972;BME280;23794;48.234;8.344;2023-08-06T09:59:23;93712.09;;;13.63;74.91
37972;BME280;23794;48.234;8.344;2023-08-06T10:01:51;93714.25;;;13.55;73.90
37972;BME280;23794;48.234;8.344;2023-08-06T10:04:19;93716.84;;;13.62;74.63
37972;BME280;23794;48.234;8.344;2023-08-06T10:06:52;93716.53;;;13.89;74.70
37972;BME280;23794;48.234;8.344;2023-08-06T10:09:19;93712.50;;;13.94;74.18
37972;BME280;23794;48.234;8.344;2023-08-06T10:11:50;93723.72;;;13.70;73.79
37972;BME280;23794;48.234;8.344;2023-08-06T10:14:28;93728.69;;;13.76;74.47
37972;BME280;23794;48.234;8.344;2023-08-06T10:17:00;93720.97;;;13.70;75.35
37972;BME280;23794;48.234;8.344;2023-08-06T10:19:27;93722.84;;;13.73;74.72
37972;BME280;23794;48.234;8.344;2023-08-06T10:22:15;93724.38;;;13.58;75.00
37972;BME280;23794;48.234;8.344;2023-08-06T10:24:47;93715.94;;;13.82;75.32
37972;BME280;23794;48.234;8.344;2023-08-06T10:27:29;93717.84;;;13.85;75.29
37972;BME280;23794;48.234;8.344;2023-08-06T10:30:22;93716.56;;;13.73;74.82
37972;BME280;23794;48.234;8.344;2023-08-06T10:32:53;93728.03;;;13.38;75.54
37972;BME280;23794;48.234;8.344;2023-08-06T10:35:47;93735.84;;;13.40;76.47
37972;BME280;23794;48.234;8.344;2023-08-06T10:38:18;93729.06;;;13.45;74.83
37972;BME280;23794;48.234;8.344;2023-08-06T10:40:50;93725.09;;;13.29;75.48
37972;BME280;23794;48.234;8.344;2023-08-06T10:43:30;93732.69;;;13.25;75.56
37972;BME280;23794;48.234;8.344;2023-08-06T10:45:58;93742.13;;;13.24;75.79
37972;BME280;23794;48.234;8.344;2023-08-06T10:48:35;93741.44;;;13.20;76.59
37972;BME280;23794;48.234;8.344;2023-08-06T10:51:04;93751.22;;;13.04;76.83
37972;BME280;23794;48.234;8.344;2023-08-06T10:53:31;93769.78;;;13.00;76.09
37972;BME280;23794;48.234;8.344;2023-08-06T10:56:01;93758.91;;;12.76;77.75
37972;BME280;23794;48.234;8.344;2023-08-06T10:58:32;93758.38;;;12.65;77.72
37972;BME280;23794;48.234;8.344;2023-08-06T11:00:59;93765.66;;;12.55;79.09
37972;BME280;23794;48.234;8.344;2023-08-06T11:03:27;93766.56;;;12.49;78.10
37972;BME280;23794;48.234;8.344;2023-08-06T11:05:54;93775.06;;;12.54;77.56
37972;BME280;23794;48.234;8.344;2023-08-06T11:08:25;93758.22;;;12.72;78.16
37972;BME280;23794;48.234;8.344;2023-08-06T11:10:52;93777.16;;;12.67;77.34
37972;BME280;23794;48.234;8.344;2023-08-06T11:13:29;93761.66;;;13.30;77.58
37972;BME280;23794;48.234;8.344;2023-08-06T11:15:57;93766.38;;;13.46;74.94
37972;BME280;23794;48.234;8.344;2023-08-06T11:18:24;93766.38;;;13.79;74.23
37972;BME280;23794;48.234;8.344;2023-08-06T11:20:51;93772.59;;;14.12;74.72
37972;BME280;23794;48.234;8.344;2023-08-06T11:23:18;93787.78;;;13.87;73.13
37972;BME280;23794;48.234;8.344;2023-08-06T11:25:45;93805.13;;;13.35;74.15
37972;BME280;23794;48.234;8.344;2023-08-06T11:28:12;93810.47;;;12.89;76.06
37972;BME280;23794;48.234;8.344;2023-08-06T11:30:40;93806.78;;;12.59;75.66
37972;BME280;23794;48.234;8.344;2023-08-06T11:33:07;93806.09;;;12.31;76.58
37972;BME280;23794;48.234;8.344;2023-08-06T11:35:36;93822.56;;;12.31;77.91
37972;BME280;23794;48.234;8.344;2023-08-06T11:38:04;93825.81;;;12.26;77.56
37972;BME280;23794;48.234;8.344;2023-08-06T11:40:32;93820.88;;;12.37;77.23
37972;BME280;23794;48.234;8.344;2023-08-06T11:42:58;93833.91;;;12.57;76.69
37972;BME280;23794;48.234;8.344;2023-08-06T11:45:25;93830.94;;;12.47;76.93
37972;BME280;23794;48.234;8.344;2023-08-06T11:47:52;93838.66;;;12.32;76.60
37972;BME280;23794;48.234;8.344;2023-08-06T11:50:26;93846.06;;;12.12;75.84
37972;BME280;23794;48.234;8.344;2023-08-06T11:52:56;93837.94;;;12.05;77.07
37972;BME280;23794;48.234;8.344;2023-08-06T11:55:23;93852.75;;;12.11;76.95
37972;BME280;23794;48.234;8.344;2023-08-06T11:57:51;93847.56;;;12.16;76.46
37972;BME280;23794;48.234;8.344;2023-08-06T12:00:18;93853.22;;;12.06;77.47
37972;BME280;23794;48.234;8.344;2023-08-06T12:02:47;93858.03;;;12.02;76.79
37972;BME280;23794;48.234;8.344;2023-08-06T12:05:19;93859.72;;;11.92;76.52
37972;BME280;23794;48.234;8.344;2023-08-06T12:07:55;93866.25;;;11.78;77.12
37972;BME280;23794;48.234;8.344;2023-08-06T12:10:25;93865.59;;;11.70;77.00
37972;BME280;23794;48.234;8.344;2023-08-06T12:12:52;93868.22;;;11.77;77.25
37972;BME280;23794;48.234;8.344;2023-08-06T12:15:19;93862.91;;;11.90;77.81
37972;BME280;23794;48.234;8.344;2023-08-06T12:17:46;93868.63;;;11.76;77.74
37972;BME280;23794;48.234;8.344;2023-08-06T12:20:13;93875.22;;;11.55;77.34
37972;BME280;23794;48.234;8.344;2023-08-06T12:22:40;93874.94;;;11.73;77.25
37972;BME280;23794;48.234;8.344;2023-08-06T12:25:09;93873.13;;;11.90;78.04
37972;BME280;23794;48.234;8.344;2023-08-06T12:27:42;93875.50;;;11.88;77.51
37972;BME280;23794;48.234;8.344;2023-08-06T12:30:09;93866.78;;;11.93;77.29
37972;BME280;23794;48.234;8.344;2023-08-06T12:32:37;93872.44;;;12.06;77.42
37972;BME280;23794;48.234;8.344;2023-08-06T12:35:03;93878.66;;;12.10;79.32
37972;BME280;23794;48.234;8.344;2023-08-06T12:37:31;93868.59;;;12.67;77.44
37972;BME280;23794;48.234;8.344;2023-08-06T12:39:57;93868.66;;;13.04;75.00
37972;BME280;23794;48.234;8.344;2023-08-06T12:42:24;93863.28;;;13.17;74.55
37972;BME280;23794;48.234;8.344;2023-08-06T12:44:51;93865.31;;;13.13;74.29
37972;BME280;23794;48.234;8.344;2023-08-06T12:47:18;93867.00;;;13.26;74.98
37972;BME280;23794;48.234;8.344;2023-08-06T12:49:46;93863.84;;;13.45;74.59
37972;BME280;23794;48.234;8.344;2023-08-06T12:52:13;93865.06;;;13.07;73.07
37972;BME280;23794;48.234;8.344;2023-08-06T12:54:42;93864.72;;;12.85;73.22
37972;BME280;23794;48.234;8.344;2023-08-06T12:57:08;93866.06;;;12.76;74.56
37972;BME280;23794;48.234;8.344;2023-08-06T12:59:35;93868.75;;;12.80;74.66
37972;BME280;23794;48.234;8.344;2023-08-06T13:02:03;93866.94;;;12.53;74.21
37972;BME280;23794;48.234;8.344;2023-08-06T13:04:30;93875.72;;;12.44;75.44
37972;BME280;23794;48.234;8.344;2023-08-06T13:06:58;93855.53;;;12.31;75.80
37972;BME280;23794;48.234;8.344;2023-08-06T13:09:24;93869.47;;;12.64;75.53
37972;BME280;23794;48.234;8.344;2023-08-06T13:11:52;93870.00;;;12.75;74.94
37972;BME280;23794;48.234;8.344;2023-08-06T13:14:19;93874.25;;;12.80;74.82
37972;BME280;23794;48.234;8.344;2023-08-06T13:16:46;93874.09;;;12.87;74.66